DAL2693 KMCO-KJFK
Flight info
| Callsign | DAL2693 |
|---|---|
| Flight time | 2h 3m |
| Altitude | 33000 |
| Route | FATHE4 VIYAP Q87 JROSS YURCK Q109 DFENC SAWED Q108 SIE CAMRN5 |
| Aircraft | A321/M-SDE3FGHIRWY/LB1 |
Departure
| Time | 2026-05-01 13:00 |
|---|---|
| Airport | Orlando International Airport (KMCO) |
Arrival
| Time | 2026-05-01 15:03 |
|---|---|
| Airport | John F. Kennedy International Airport (KJFK) |
| Time | Latitude | Longitude | Altitude | Speed | Heading |
|---|---|---|---|---|---|
| 2026-05-01 12:26 | 28.42752 | -81.30032 | 94 ft | 0 kts | 301° |
| 2026-05-01 12:42 | 28.42750 | -81.30028 | 94 ft | 3 kts | 301° |
| 2026-05-01 12:43 | 28.42740 | -81.30010 | 95 ft | 3 kts | 301° |
| 2026-05-01 12:43 | 28.42731 | -81.29992 | 93 ft | 3 kts | 301° |
| 2026-05-01 12:43 | 28.42721 | -81.29974 | 92 ft | 3 kts | 301° |
| 2026-05-01 12:43 | 28.42711 | -81.29955 | 94 ft | 3 kts | 301° |
| 2026-05-01 12:44 | 28.42701 | -81.29937 | 93 ft | 3 kts | 301° |
| 2026-05-01 12:44 | 28.42691 | -81.29919 | 94 ft | 3 kts | 301° |
| 2026-05-01 12:44 | 28.42665 | -81.29889 | 94 ft | 2 kts | 330° |
| 2026-05-01 12:45 | 28.42664 | -81.29888 | 94 ft | 0 kts | 330° |
| 2026-05-01 12:48 | 28.42665 | -81.29889 | 94 ft | 2 kts | 330° |
| 2026-05-01 12:48 | 28.42708 | -81.29889 | 94 ft | 10 kts | 8° |
| 2026-05-01 12:49 | 28.42772 | -81.29883 | 95 ft | 9 kts | 0° |
| 2026-05-01 12:49 | 28.42842 | -81.29883 | 96 ft | 12 kts | 360° |
| 2026-05-01 12:49 | 28.42897 | -81.29876 | 97 ft | 7 kts | 31° |
| 2026-05-01 12:49 | 28.42928 | -81.29806 | 95 ft | 11 kts | 40° |
| 2026-05-01 12:50 | 28.43003 | -81.29800 | 95 ft | 13 kts | 359° |
| 2026-05-01 12:50 | 28.43098 | -81.29801 | 96 ft | 13 kts | 359° |
| 2026-05-01 12:50 | 28.43185 | -81.29802 | 96 ft | 12 kts | 359° |
| 2026-05-01 12:50 | 28.43283 | -81.29803 | 96 ft | 15 kts | 360° |
| 2026-05-01 12:51 | 28.43390 | -81.29804 | 95 ft | 17 kts | 359° |
| 2026-05-01 12:51 | 28.43516 | -81.29806 | 96 ft | 18 kts | 359° |
| 2026-05-01 12:51 | 28.43748 | -81.29820 | 97 ft | 17 kts | 344° |
| 2026-05-01 12:52 | 28.43853 | -81.29902 | 98 ft | 19 kts | 310° |
| 2026-05-01 12:52 | 28.43904 | -81.30168 | 101 ft | 20 kts | 273° |
| 2026-05-01 12:52 | 28.43911 | -81.30321 | 102 ft | 19 kts | 272° |
| 2026-05-01 12:53 | 28.43927 | -81.30621 | 106 ft | 21 kts | 274° |
| 2026-05-01 12:53 | 28.43937 | -81.30774 | 109 ft | 18 kts | 274° |
| 2026-05-01 12:53 | 28.43943 | -81.30919 | 107 ft | 19 kts | 269° |
| 2026-05-01 12:54 | 28.43942 | -81.31062 | 108 ft | 18 kts | 269° |
| 2026-05-01 12:54 | 28.43928 | -81.31361 | 106 ft | 20 kts | 266° |
| 2026-05-01 12:54 | 28.43924 | -81.31520 | 106 ft | 19 kts | 269° |
| 2026-05-01 12:55 | 28.43922 | -81.31801 | 100 ft | 14 kts | 269° |
| 2026-05-01 12:55 | 28.43962 | -81.31868 | 99 ft | 12 kts | 336° |
| 2026-05-01 12:55 | 28.44060 | -81.31899 | 99 ft | 15 kts | 353° |
| 2026-05-01 12:56 | 28.44175 | -81.31901 | 98 ft | 20 kts | 359° |
| 2026-05-01 12:56 | 28.44309 | -81.31903 | 99 ft | 19 kts | 359° |
| 2026-05-01 12:56 | 28.44434 | -81.31904 | 98 ft | 17 kts | 359° |
| 2026-05-01 12:56 | 28.44550 | -81.31906 | 99 ft | 16 kts | 359° |
| 2026-05-01 12:57 | 28.44660 | -81.31907 | 98 ft | 15 kts | 359° |
| 2026-05-01 12:57 | 28.44824 | -81.31963 | 98 ft | 12 kts | 280° |
| 2026-05-01 12:57 | 28.44825 | -81.32054 | 99 ft | 11 kts | 269° |
| 2026-05-01 12:58 | 28.44824 | -81.32143 | 99 ft | 11 kts | 269° |
| 2026-05-01 12:58 | 28.44817 | -81.32219 | 97 ft | 7 kts | 244° |
| 2026-05-01 12:58 | 28.44782 | -81.32233 | 98 ft | 1 kts | 178° |
| 2026-05-01 12:59 | 28.44605 | -81.32230 | 98 ft | 57 kts | 179° |
| 2026-05-01 12:59 | 28.43997 | -81.32224 | 101 ft | 115 kts | 179° |
| 2026-05-01 12:59 | 28.41880 | -81.32190 | 457 ft | 166 kts | 180° |
| 2026-05-01 13:00 | 28.39812 | -81.31211 | 1499 ft | 173 kts | 129° |
| 2026-05-01 13:00 | 28.39112 | -81.30074 | 1924 ft | 181 kts | 123° |
| 2026-05-01 13:01 | 28.37621 | -81.27452 | 2240 ft | 217 kts | 123° |
| 2026-05-01 13:01 | 28.36758 | -81.25954 | 2381 ft | 236 kts | 123° |
| 2026-05-01 13:01 | 28.34786 | -81.22537 | 3142 ft | 272 kts | 123° |
| 2026-05-01 13:02 | 28.33759 | -81.20717 | 3900 ft | 276 kts | 120° |
| 2026-05-01 13:07 | 28.72109 | -81.24683 | 15777 ft | 363 kts | 338° |
| 2026-05-01 13:07 | 28.74537 | -81.25531 | 16290 ft | 367 kts | 338° |
| 2026-05-01 13:07 | 28.76989 | -81.26385 | 16799 ft | 370 kts | 338° |
| 2026-05-01 13:08 | 28.79459 | -81.27242 | 17302 ft | 373 kts | 338° |
| 2026-05-01 13:08 | 28.81952 | -81.28103 | 17800 ft | 376 kts | 338° |
| 2026-05-01 13:08 | 28.84511 | -81.28823 | 18266 ft | 384 kts | 346° |
| 2026-05-01 13:08 | 28.87193 | -81.29109 | 18675 ft | 389 kts | 351° |
| 2026-05-01 13:09 | 28.89904 | -81.29340 | 19075 ft | 392 kts | 351° |
| 2026-05-01 13:09 | 28.92633 | -81.29573 | 19477 ft | 395 kts | 350° |
| 2026-05-01 13:09 | 28.95380 | -81.29806 | 19874 ft | 397 kts | 350° |
| 2026-05-01 13:09 | 28.98147 | -81.30041 | 20273 ft | 400 kts | 350° |
| 2026-05-01 13:10 | 29.00930 | -81.30291 | 20657 ft | 402 kts | 349° |
| 2026-05-01 13:10 | 29.03725 | -81.30583 | 21034 ft | 405 kts | 349° |
| 2026-05-01 13:10 | 29.06536 | -81.30903 | 21400 ft | 407 kts | 348° |
| 2026-05-01 13:10 | 29.09361 | -81.31233 | 21764 ft | 410 kts | 348° |
| 2026-05-01 13:11 | 29.12209 | -81.31545 | 22119 ft | 413 kts | 349° |
| 2026-05-01 13:11 | 29.15090 | -81.31778 | 22461 ft | 417 kts | 351° |
| 2026-05-01 13:11 | 29.17997 | -81.31948 | 22794 ft | 420 kts | 352° |
| 2026-05-01 13:11 | 29.20926 | -81.32089 | 23130 ft | 423 kts | 352° |
| 2026-05-01 13:12 | 29.23872 | -81.32229 | 23457 ft | 425 kts | 352° |
| 2026-05-01 13:12 | 29.26797 | -81.32378 | 23722 ft | 428 kts | 351° |
| 2026-05-01 13:12 | 29.29777 | -81.32542 | 24005 ft | 429 kts | 351° |
| 2026-05-01 13:12 | 29.32767 | -81.32718 | 24291 ft | 431 kts | 351° |
| 2026-05-01 13:13 | 29.35768 | -81.32903 | 24582 ft | 433 kts | 351° |
| 2026-05-01 13:13 | 29.38778 | -81.33092 | 24868 ft | 434 kts | 351° |
| 2026-05-01 13:13 | 29.41800 | -81.33280 | 25156 ft | 436 kts | 351° |
| 2026-05-01 13:13 | 29.44834 | -81.33466 | 25448 ft | 438 kts | 351° |
| 2026-05-01 13:14 | 29.47884 | -81.33650 | 25742 ft | 439 kts | 351° |
| 2026-05-01 13:14 | 29.50943 | -81.33833 | 26031 ft | 441 kts | 351° |
| 2026-05-01 13:14 | 29.54011 | -81.34015 | 26324 ft | 443 kts | 351° |
| 2026-05-01 13:14 | 29.57093 | -81.34199 | 26603 ft | 444 kts | 351° |
| 2026-05-01 13:15 | 29.60190 | -81.34388 | 26903 ft | 446 kts | 351° |
| 2026-05-01 13:15 | 29.63294 | -81.34578 | 27186 ft | 448 kts | 351° |
| 2026-05-01 13:15 | 29.66413 | -81.34766 | 27469 ft | 450 kts | 351° |
| 2026-05-01 13:15 | 29.69544 | -81.34945 | 27748 ft | 451 kts | 351° |
| 2026-05-01 13:16 | 29.72684 | -81.35120 | 28029 ft | 453 kts | 351° |
| 2026-05-01 13:16 | 29.75839 | -81.35295 | 28310 ft | 454 kts | 351° |
| 2026-05-01 13:16 | 29.79000 | -81.35472 | 28581 ft | 456 kts | 351° |
| 2026-05-01 13:17 | 29.88558 | -81.36021 | 29407 ft | 461 kts | 350° |
| 2026-05-01 13:17 | 29.91764 | -81.36205 | 29691 ft | 462 kts | 350° |
| 2026-05-01 13:18 | 29.98162 | -81.36571 | 30394 ft | 459 kts | 350° |
| 2026-05-01 13:18 | 30.01342 | -81.36756 | 30724 ft | 457 kts | 350° |
| 2026-05-01 13:18 | 30.04519 | -81.36938 | 31065 ft | 456 kts | 350° |
| 2026-05-01 13:18 | 30.07681 | -81.37118 | 31402 ft | 454 kts | 350° |
| 2026-05-01 13:19 | 30.10837 | -81.37298 | 31734 ft | 453 kts | 349° |
| 2026-05-01 13:19 | 30.13978 | -81.37480 | 32074 ft | 452 kts | 349° |
| 2026-05-01 13:19 | 30.20236 | -81.37841 | 32757 ft | 449 kts | 349° |
| 2026-05-01 13:20 | 30.23349 | -81.38021 | 32931 ft | 447 kts | 349° |
| 2026-05-01 13:20 | 30.29479 | -81.38371 | 32971 ft | 437 kts | 349° |
| 2026-05-01 13:21 | 30.38556 | -81.38903 | 32970 ft | 435 kts | 349° |
| 2026-05-01 13:21 | 30.44592 | -81.39262 | 32973 ft | 434 kts | 348° |
| 2026-05-01 13:22 | 30.50627 | -81.39607 | 32973 ft | 434 kts | 349° |
| 2026-05-01 13:22 | 30.56664 | -81.39917 | 32993 ft | 434 kts | 349° |
| 2026-05-01 13:23 | 30.62661 | -81.40224 | 33009 ft | 434 kts | 349° |
| 2026-05-01 13:23 | 30.68694 | -81.40537 | 33010 ft | 434 kts | 348° |
| 2026-05-01 13:24 | 30.74725 | -81.40858 | 33003 ft | 434 kts | 348° |
| 2026-05-01 13:25 | 30.83758 | -81.41341 | 32985 ft | 433 kts | 348° |
| 2026-05-01 13:25 | 30.89777 | -81.41663 | 32980 ft | 433 kts | 348° |
| 2026-05-01 13:26 | 30.95795 | -81.41988 | 32973 ft | 433 kts | 348° |
| 2026-05-01 13:26 | 31.01808 | -81.42316 | 32987 ft | 433 kts | 348° |
| 2026-05-01 13:27 | 31.07823 | -81.42630 | 32996 ft | 433 kts | 348° |
| 2026-05-01 13:27 | 31.16843 | -81.43099 | 32994 ft | 432 kts | 348° |
| 2026-05-01 13:28 | 31.25936 | -81.42796 | 33015 ft | 453 kts | 5° |
| 2026-05-01 13:29 | 31.31912 | -81.39967 | 33013 ft | 468 kts | 15° |
| 2026-05-01 13:29 | 31.37821 | -81.36743 | 33001 ft | 469 kts | 15° |
| 2026-05-01 13:31 | 31.55574 | -81.27099 | 32962 ft | 468 kts | 15° |
| 2026-05-01 13:32 | 31.70352 | -81.19034 | 32956 ft | 469 kts | 15° |
| 2026-05-01 13:33 | 31.85084 | -81.10960 | 32955 ft | 468 kts | 15° |
| 2026-05-01 13:34 | 31.90946 | -81.07562 | 32954 ft | 480 kts | 25° |
| 2026-05-01 13:34 | 31.96208 | -81.02538 | 32953 ft | 489 kts | 31° |
| 2026-05-01 13:35 | 32.04005 | -80.94764 | 32945 ft | 490 kts | 31° |
| 2026-05-01 13:36 | 32.11807 | -80.86983 | 32979 ft | 490 kts | 30° |
| 2026-05-01 13:36 | 32.19622 | -80.79205 | 33002 ft | 490 kts | 30° |
| 2026-05-01 13:37 | 32.24833 | -80.74012 | 33001 ft | 490 kts | 30° |
| 2026-05-01 13:37 | 32.30036 | -80.68815 | 32998 ft | 490 kts | 30° |
| 2026-05-01 13:38 | 32.37798 | -80.61025 | 32992 ft | 490 kts | 30° |
| 2026-05-01 13:39 | 32.43029 | -80.55769 | 32990 ft | 490 kts | 30° |
| 2026-05-01 13:39 | 32.48228 | -80.50550 | 32991 ft | 490 kts | 30° |
| 2026-05-01 13:40 | 32.53391 | -80.45360 | 32992 ft | 490 kts | 30° |
| 2026-05-01 13:40 | 32.58583 | -80.40118 | 32989 ft | 490 kts | 30° |
| 2026-05-01 13:41 | 32.63773 | -80.34876 | 32995 ft | 490 kts | 30° |
| 2026-05-01 13:41 | 32.68966 | -80.29626 | 33003 ft | 490 kts | 30° |
| 2026-05-01 13:42 | 32.74152 | -80.24370 | 33002 ft | 490 kts | 30° |
| 2026-05-01 13:42 | 32.79336 | -80.19107 | 33010 ft | 490 kts | 30° |
| 2026-05-01 13:43 | 32.84518 | -80.13839 | 33012 ft | 490 kts | 30° |
| 2026-05-01 13:43 | 32.89698 | -80.08561 | 33014 ft | 490 kts | 30° |
| 2026-05-01 13:44 | 32.94877 | -80.03278 | 33013 ft | 490 kts | 30° |
| 2026-05-01 13:44 | 33.00061 | -79.97987 | 33010 ft | 491 kts | 30° |
| 2026-05-01 13:45 | 33.05242 | -79.92688 | 33018 ft | 491 kts | 30° |
| 2026-05-01 13:45 | 33.10424 | -79.87375 | 33016 ft | 491 kts | 30° |
| 2026-05-01 13:46 | 33.15606 | -79.82053 | 33015 ft | 492 kts | 30° |
| 2026-05-01 13:46 | 33.20786 | -79.76719 | 33014 ft | 492 kts | 30° |
| 2026-05-01 13:47 | 33.25976 | -79.71382 | 33012 ft | 492 kts | 30° |
| 2026-05-01 13:47 | 33.31162 | -79.66036 | 33026 ft | 493 kts | 30° |
| 2026-05-01 13:48 | 33.36346 | -79.60671 | 33021 ft | 493 kts | 30° |
| 2026-05-01 13:48 | 33.41499 | -79.55332 | 33028 ft | 493 kts | 30° |
| 2026-05-01 13:49 | 33.46691 | -79.49948 | 33028 ft | 494 kts | 30° |
| 2026-05-01 13:49 | 33.51886 | -79.44560 | 33029 ft | 494 kts | 30° |
| 2026-05-01 13:50 | 33.57090 | -79.39162 | 33026 ft | 495 kts | 30° |
| 2026-05-01 13:50 | 33.62291 | -79.33751 | 33036 ft | 495 kts | 30° |
| 2026-05-01 13:51 | 33.67495 | -79.28318 | 33035 ft | 496 kts | 30° |
| 2026-05-01 13:51 | 33.72701 | -79.22871 | 33041 ft | 496 kts | 30° |
| 2026-05-01 13:52 | 33.77913 | -79.17419 | 33039 ft | 497 kts | 30° |
| 2026-05-01 13:52 | 33.83128 | -79.11944 | 33037 ft | 498 kts | 30° |
| 2026-05-01 13:53 | 33.88346 | -79.06458 | 33039 ft | 498 kts | 30° |
| 2026-05-01 13:53 | 33.96185 | -78.98210 | 33042 ft | 499 kts | 30° |
| 2026-05-01 13:54 | 34.00528 | -78.93627 | 33039 ft | 500 kts | 30° |
| 2026-05-01 13:54 | 34.05760 | -78.88105 | 33046 ft | 500 kts | 30° |
| 2026-05-01 13:55 | 34.10994 | -78.82576 | 33056 ft | 500 kts | 30° |
| 2026-05-01 13:55 | 34.16229 | -78.77033 | 33062 ft | 501 kts | 30° |
| 2026-05-01 13:56 | 34.21465 | -78.71473 | 33067 ft | 501 kts | 30° |
| 2026-05-01 13:56 | 34.26701 | -78.65897 | 33069 ft | 502 kts | 30° |
| 2026-05-01 13:57 | 34.31934 | -78.60309 | 33067 ft | 502 kts | 30° |
| 2026-05-01 13:57 | 34.37259 | -78.54920 | 33064 ft | 496 kts | 26° |
| 2026-05-01 13:58 | 34.42736 | -78.49866 | 33062 ft | 494 kts | 25° |
| 2026-05-01 13:58 | 34.48225 | -78.44845 | 33070 ft | 495 kts | 25° |
| 2026-05-01 13:59 | 34.53676 | -78.39706 | 33070 ft | 497 kts | 26° |
| 2026-05-01 13:59 | 34.59104 | -78.34503 | 33072 ft | 497 kts | 26° |
| 2026-05-01 14:00 | 34.64535 | -78.29299 | 33072 ft | 497 kts | 26° |
| 2026-05-01 14:00 | 34.69940 | -78.24155 | 33071 ft | 497 kts | 26° |
| 2026-05-01 14:01 | 34.75384 | -78.18981 | 33077 ft | 497 kts | 26° |
| 2026-05-01 14:01 | 34.80827 | -78.13783 | 33079 ft | 497 kts | 26° |
| 2026-05-01 14:02 | 34.86263 | -78.08574 | 33079 ft | 497 kts | 26° |
| 2026-05-01 14:02 | 34.91702 | -78.03364 | 33083 ft | 497 kts | 26° |
| 2026-05-01 14:03 | 34.97141 | -77.98169 | 33087 ft | 497 kts | 25° |
| 2026-05-01 14:03 | 35.02578 | -77.92978 | 33102 ft | 496 kts | 25° |
| 2026-05-01 14:04 | 35.08006 | -77.87780 | 33104 ft | 496 kts | 26° |
| 2026-05-01 14:04 | 35.13426 | -77.82576 | 33096 ft | 496 kts | 26° |
| 2026-05-01 14:05 | 35.18839 | -77.77357 | 33106 ft | 495 kts | 26° |
| 2026-05-01 14:05 | 35.24246 | -77.72128 | 33109 ft | 495 kts | 26° |
| 2026-05-01 14:06 | 35.29650 | -77.66904 | 33107 ft | 495 kts | 26° |
| 2026-05-01 14:06 | 35.35053 | -77.61686 | 33109 ft | 494 kts | 26° |
| 2026-05-01 14:07 | 35.40415 | -77.56502 | 33112 ft | 494 kts | 26° |
| 2026-05-01 14:08 | 35.48502 | -77.48641 | 33108 ft | 495 kts | 26° |
| 2026-05-01 14:08 | 35.53897 | -77.43396 | 33097 ft | 495 kts | 25° |
| 2026-05-01 14:09 | 35.59290 | -77.38140 | 33097 ft | 495 kts | 25° |
| 2026-05-01 14:09 | 35.64682 | -77.32870 | 33091 ft | 495 kts | 25° |
| 2026-05-01 14:10 | 35.70069 | -77.27588 | 33084 ft | 496 kts | 25° |
| 2026-05-01 14:10 | 35.75463 | -77.22294 | 33088 ft | 496 kts | 25° |
| 2026-05-01 14:11 | 35.80866 | -77.16993 | 33090 ft | 497 kts | 25° |
| 2026-05-01 14:11 | 35.88972 | -77.09007 | 33092 ft | 498 kts | 25° |
| 2026-05-01 14:12 | 35.94539 | -77.04167 | 33085 ft | 481 kts | 16° |
| 2026-05-01 14:12 | 36.00312 | -76.99975 | 33086 ft | 482 kts | 16° |
| 2026-05-01 14:13 | 36.05117 | -76.96483 | 33085 ft | 483 kts | 16° |
| 2026-05-01 14:13 | 36.11842 | -76.91571 | 33090 ft | 483 kts | 16° |
| 2026-05-01 14:14 | 36.17634 | -76.87328 | 33089 ft | 484 kts | 16° |
| 2026-05-01 14:14 | 36.23428 | -76.83072 | 33090 ft | 485 kts | 16° |
| 2026-05-01 14:15 | 36.29224 | -76.78806 | 33091 ft | 485 kts | 16° |
| 2026-05-01 14:15 | 36.35026 | -76.74545 | 33089 ft | 485 kts | 16° |
| 2026-05-01 14:16 | 36.40828 | -76.70274 | 33105 ft | 485 kts | 16° |
| 2026-05-01 14:16 | 36.46621 | -76.65994 | 33116 ft | 485 kts | 16° |
| 2026-05-01 14:17 | 36.52411 | -76.61709 | 33119 ft | 484 kts | 16° |
| 2026-05-01 14:17 | 36.58195 | -76.57423 | 33125 ft | 484 kts | 15° |
| 2026-05-01 14:18 | 36.63971 | -76.53143 | 33121 ft | 483 kts | 15° |
| 2026-05-01 14:18 | 36.68767 | -76.49577 | 33113 ft | 483 kts | 15° |
| 2026-05-01 14:19 | 36.75472 | -76.44584 | 33106 ft | 483 kts | 15° |
| 2026-05-01 14:19 | 36.81240 | -76.40282 | 33105 ft | 483 kts | 15° |
| 2026-05-01 14:20 | 36.89889 | -76.33808 | 33134 ft | 483 kts | 15° |
| 2026-05-01 14:21 | 36.95656 | -76.29485 | 33127 ft | 484 kts | 15° |
| 2026-05-01 14:21 | 37.01429 | -76.25153 | 33125 ft | 484 kts | 15° |
| 2026-05-01 14:22 | 37.10100 | -76.18631 | 33087 ft | 485 kts | 16° |
| 2026-05-01 14:22 | 37.15885 | -76.14264 | 33083 ft | 486 kts | 16° |
| 2026-05-01 14:23 | 37.21677 | -76.09894 | 33079 ft | 486 kts | 16° |
| 2026-05-01 14:23 | 37.27474 | -76.05508 | 33078 ft | 487 kts | 16° |
| 2026-05-01 14:24 | 37.33273 | -76.01105 | 33092 ft | 487 kts | 16° |
| 2026-05-01 14:24 | 37.39077 | -75.96693 | 33090 ft | 488 kts | 16° |
| 2026-05-01 14:25 | 37.44886 | -75.92277 | 33094 ft | 488 kts | 16° |
| 2026-05-01 14:25 | 37.50696 | -75.87843 | 33092 ft | 488 kts | 16° |
| 2026-05-01 14:26 | 37.59381 | -75.81254 | 33094 ft | 487 kts | 16° |
| 2026-05-01 14:27 | 37.65217 | -75.76910 | 33094 ft | 487 kts | 15° |
| 2026-05-01 14:27 | 37.71054 | -75.72559 | 33093 ft | 488 kts | 16° |
| 2026-05-01 14:28 | 37.79803 | -75.65977 | 33087 ft | 488 kts | 16° |
| 2026-05-01 14:28 | 37.85625 | -75.61534 | 33093 ft | 491 kts | 18° |
| 2026-05-01 14:29 | 37.91341 | -75.56689 | 33101 ft | 497 kts | 21° |
| 2026-05-01 14:30 | 38.02637 | -75.46531 | 33099 ft | 497 kts | 21° |
| 2026-05-01 14:31 | 38.11325 | -75.39825 | 33087 ft | 462 kts | 3° |
| 2026-05-01 14:31 | 38.17412 | -75.37587 | 33075 ft | 455 kts | 0° |
| 2026-05-01 14:32 | 38.23510 | -75.35438 | 33074 ft | 455 kts | 0° |
| 2026-05-01 14:32 | 38.29610 | -75.33284 | 33085 ft | 455 kts | 1° |
| 2026-05-01 14:33 | 38.35715 | -75.31092 | 33085 ft | 456 kts | 1° |
| 2026-05-01 14:33 | 38.41824 | -75.28894 | 33076 ft | 456 kts | 1° |
| 2026-05-01 14:34 | 38.47938 | -75.26698 | 33077 ft | 457 kts | 2° |
| 2026-05-01 14:34 | 38.54066 | -75.24497 | 32817 ft | 459 kts | 2° |
| 2026-05-01 14:34 | 38.57138 | -75.23391 | 32465 ft | 459 kts | 2° |
| 2026-05-01 14:35 | 38.60214 | -75.22284 | 32118 ft | 460 kts | 2° |
| 2026-05-01 14:35 | 38.63296 | -75.21172 | 31770 ft | 461 kts | 2° |
| 2026-05-01 14:35 | 38.66345 | -75.20069 | 31447 ft | 462 kts | 2° |
| 2026-05-01 14:35 | 38.69420 | -75.18709 | 31101 ft | 477 kts | 11° |
| 2026-05-01 14:36 | 38.72373 | -75.16617 | 30769 ft | 495 kts | 22° |
| 2026-05-01 14:36 | 38.75152 | -75.13956 | 30447 ft | 499 kts | 26° |
| 2026-05-01 14:36 | 38.77904 | -75.11247 | 30114 ft | 498 kts | 26° |
| 2026-05-01 14:36 | 38.80645 | -75.08540 | 29734 ft | 496 kts | 26° |
| 2026-05-01 14:37 | 38.83367 | -75.05849 | 29360 ft | 493 kts | 26° |
| 2026-05-01 14:37 | 38.86073 | -75.03175 | 28969 ft | 489 kts | 26° |
| 2026-05-01 14:37 | 38.88761 | -75.00527 | 28590 ft | 485 kts | 27° |
| 2026-05-01 14:37 | 38.91426 | -74.97905 | 28229 ft | 481 kts | 27° |
| 2026-05-01 14:38 | 38.94071 | -74.95304 | 27859 ft | 477 kts | 27° |
| 2026-05-01 14:38 | 38.96697 | -74.92722 | 27492 ft | 473 kts | 27° |
| 2026-05-01 14:38 | 38.99299 | -74.90164 | 27138 ft | 470 kts | 28° |
| 2026-05-01 14:38 | 39.01882 | -74.87619 | 26778 ft | 466 kts | 28° |
| 2026-05-01 14:39 | 39.04444 | -74.85088 | 26420 ft | 462 kts | 28° |
| 2026-05-01 14:39 | 39.06983 | -74.82570 | 26075 ft | 459 kts | 29° |
| 2026-05-01 14:39 | 39.09498 | -74.80071 | 25730 ft | 455 kts | 30° |
| 2026-05-01 14:39 | 39.11972 | -74.77548 | 25382 ft | 453 kts | 31° |
| 2026-05-01 14:40 | 39.14401 | -74.74964 | 25052 ft | 451 kts | 33° |
| 2026-05-01 14:40 | 39.16786 | -74.72358 | 24713 ft | 448 kts | 33° |
| 2026-05-01 14:40 | 39.19144 | -74.69753 | 24375 ft | 445 kts | 34° |
| 2026-05-01 14:40 | 39.21488 | -74.67166 | 24054 ft | 442 kts | 34° |
| 2026-05-01 14:41 | 39.23787 | -74.64646 | 23728 ft | 438 kts | 34° |
| 2026-05-01 14:41 | 39.26108 | -74.62120 | 23358 ft | 435 kts | 34° |
| 2026-05-01 14:41 | 39.28415 | -74.59619 | 22982 ft | 432 kts | 34° |
| 2026-05-01 14:41 | 39.30707 | -74.57138 | 22598 ft | 429 kts | 34° |
| 2026-05-01 14:42 | 39.32985 | -74.54675 | 22225 ft | 426 kts | 34° |
| 2026-05-01 14:42 | 39.35247 | -74.52223 | 21861 ft | 423 kts | 34° |
| 2026-05-01 14:42 | 39.37492 | -74.49781 | 21488 ft | 420 kts | 34° |
| 2026-05-01 14:42 | 39.39718 | -74.47353 | 21121 ft | 418 kts | 34° |
| 2026-05-01 14:43 | 39.41927 | -74.44938 | 20774 ft | 415 kts | 34° |
| 2026-05-01 14:43 | 39.44126 | -74.42537 | 20413 ft | 412 kts | 34° |
| 2026-05-01 14:43 | 39.46309 | -74.40157 | 20060 ft | 409 kts | 34° |
| 2026-05-01 14:43 | 39.48479 | -74.37792 | 19724 ft | 406 kts | 34° |
| 2026-05-01 14:44 | 39.50634 | -74.35443 | 19374 ft | 404 kts | 34° |
| 2026-05-01 14:44 | 39.54901 | -74.30774 | 18707 ft | 399 kts | 34° |
| 2026-05-01 14:44 | 39.57013 | -74.28460 | 18370 ft | 396 kts | 34° |
| 2026-05-01 14:45 | 39.59112 | -74.26156 | 17990 ft | 394 kts | 34° |
| 2026-05-01 14:45 | 39.63261 | -74.21591 | 17246 ft | 388 kts | 34° |
| 2026-05-01 14:45 | 39.65313 | -74.19335 | 16868 ft | 385 kts | 34° |
| 2026-05-01 14:46 | 39.67355 | -74.17097 | 16519 ft | 382 kts | 34° |
| 2026-05-01 14:46 | 39.71385 | -74.12666 | 15800 ft | 377 kts | 34° |
| 2026-05-01 14:46 | 39.72704 | -74.11208 | 15563 ft | 375 kts | 34° |
| 2026-05-01 14:47 | 39.74681 | -74.09019 | 15217 ft | 372 kts | 34° |
| 2026-05-01 14:47 | 39.76646 | -74.06840 | 14872 ft | 370 kts | 35° |
| 2026-05-01 14:47 | 39.78591 | -74.04678 | 14529 ft | 367 kts | 35° |
| 2026-05-01 14:48 | 39.82451 | -74.00397 | 13856 ft | 362 kts | 34° |
| 2026-05-01 14:48 | 39.84418 | -73.98403 | 13480 ft | 354 kts | 26° |
| 2026-05-01 14:48 | 39.88648 | -73.95373 | 12736 ft | 343 kts | 22° |
| 2026-05-01 14:49 | 39.92792 | -73.92442 | 12011 ft | 334 kts | 22° |
| 2026-05-01 14:49 | 39.96752 | -73.89623 | 11484 ft | 313 kts | 22° |
| 2026-05-01 14:50 | 39.99844 | -73.87420 | 11098 ft | 295 kts | 22° |
| 2026-05-01 14:50 | 40.03988 | -73.84606 | 10493 ft | 281 kts | 19° |
| 2026-05-01 14:51 | 40.05752 | -73.83542 | 10228 ft | 278 kts | 19° |
| 2026-05-01 14:51 | 40.09230 | -73.81475 | 9676 ft | 272 kts | 19° |
| 2026-05-01 14:52 | 40.12650 | -73.79413 | 9084 ft | 270 kts | 20° |
| 2026-05-01 14:52 | 40.14348 | -73.78375 | 8795 ft | 269 kts | 20° |
| 2026-05-01 14:52 | 40.17734 | -73.76297 | 8216 ft | 268 kts | 20° |
| 2026-05-01 14:53 | 40.19417 | -73.75262 | 7931 ft | 267 kts | 20° |
| 2026-05-01 14:53 | 40.21074 | -73.74240 | 7654 ft | 267 kts | 20° |
| 2026-05-01 14:53 | 40.22749 | -73.73205 | 7375 ft | 266 kts | 20° |
| 2026-05-01 14:53 | 40.24422 | -73.72172 | 7107 ft | 265 kts | 21° |
| 2026-05-01 14:54 | 40.26092 | -73.71143 | 6826 ft | 265 kts | 21° |
| 2026-05-01 14:54 | 40.27760 | -73.70117 | 6557 ft | 265 kts | 21° |
| 2026-05-01 14:54 | 40.29429 | -73.69093 | 6272 ft | 265 kts | 21° |
| 2026-05-01 14:54 | 40.31093 | -73.68070 | 5982 ft | 264 kts | 21° |
| 2026-05-01 14:55 | 40.32752 | -73.67050 | 5694 ft | 263 kts | 21° |
| 2026-05-01 14:55 | 40.34403 | -73.66032 | 5405 ft | 261 kts | 22° |
| 2026-05-01 14:55 | 40.36037 | -73.65023 | 5149 ft | 260 kts | 22° |
| 2026-05-01 14:55 | 40.37669 | -73.64014 | 4926 ft | 259 kts | 22° |
| 2026-05-01 14:56 | 40.39297 | -73.63004 | 4691 ft | 258 kts | 22° |
| 2026-05-01 14:56 | 40.40919 | -73.61995 | 4455 ft | 258 kts | 23° |
| 2026-05-01 14:56 | 40.42536 | -73.60991 | 4213 ft | 257 kts | 23° |
| 2026-05-01 14:56 | 40.44138 | -73.60002 | 3975 ft | 251 kts | 21° |
| 2026-05-01 14:57 | 40.45792 | -73.59476 | 3772 ft | 240 kts | 2° |
| 2026-05-01 14:57 | 40.49021 | -73.59207 | 3409 ft | 226 kts | 2° |
| 2026-05-01 14:57 | 40.50553 | -73.59080 | 3258 ft | 215 kts | 2° |
| 2026-05-01 14:58 | 40.52009 | -73.58959 | 3087 ft | 205 kts | 2° |
| 2026-05-01 14:58 | 40.53411 | -73.58844 | 3009 ft | 200 kts | 2° |
| 2026-05-01 14:58 | 40.54793 | -73.58784 | 3013 ft | 198 kts | 354° |
| 2026-05-01 14:58 | 40.56051 | -73.59227 | 3022 ft | 178 kts | 334° |
| 2026-05-01 14:59 | 40.57045 | -73.60126 | 2892 ft | 171 kts | 316° |
| 2026-05-01 14:59 | 40.57747 | -73.61365 | 2677 ft | 168 kts | 302° |
| 2026-05-01 14:59 | 40.58343 | -73.62675 | 2456 ft | 166 kts | 302° |
| 2026-05-01 14:59 | 40.58942 | -73.63988 | 2230 ft | 167 kts | 302° |
| 2026-05-01 15:00 | 40.60122 | -73.66579 | 1785 ft | 160 kts | 302° |
| 2026-05-01 15:00 | 40.60682 | -73.67809 | 1544 ft | 152 kts | 302° |
| 2026-05-01 15:00 | 40.61202 | -73.68952 | 1351 ft | 141 kts | 302° |
| 2026-05-01 15:01 | 40.61533 | -73.69680 | 1218 ft | 139 kts | 302° |
| 2026-05-01 15:01 | 40.61759 | -73.70175 | 1132 ft | 136 kts | 301° |
| 2026-05-01 15:01 | 40.62240 | -73.71234 | 939 ft | 134 kts | 301° |
| 2026-05-01 15:01 | 40.62717 | -73.72282 | 756 ft | 133 kts | 301° |
| 2026-05-01 15:02 | 40.63193 | -73.73328 | 575 ft | 133 kts | 301° |
| 2026-05-01 15:02 | 40.63505 | -73.74016 | 431 ft | 133 kts | 301° |
| 2026-05-01 15:02 | 40.64137 | -73.75410 | 217 ft | 133 kts | 300° |
| 2026-05-01 15:02 | 40.64603 | -73.76435 | 46 ft | 132 kts | 298° |
| 2026-05-01 15:03 | 40.65033 | -73.77387 | 16 ft | 102 kts | 301° |
| 2026-05-01 15:03 | 40.65271 | -73.77910 | 16 ft | 26 kts | 301° |
| 2026-05-01 15:03 | 40.65314 | -73.78115 | 16 ft | 14 kts | 272° |
| 2026-05-01 15:03 | 40.65315 | -73.78220 | 16 ft | 11 kts | 270° |
| 2026-05-01 15:04 | 40.65327 | -73.78314 | 17 ft | 10 kts | 296° |
| 2026-05-01 15:04 | 40.65361 | -73.78395 | 16 ft | 10 kts | 290° |
| 2026-05-01 15:04 | 40.65341 | -73.78502 | 16 ft | 13 kts | 245° |
| 2026-05-01 15:04 | 40.65301 | -73.78607 | 18 ft | 12 kts | 241° |
| 2026-05-01 15:05 | 40.65268 | -73.78684 | 19 ft | 11 kts | 240° |
| 2026-05-01 15:05 | 40.65225 | -73.78802 | 16 ft | 15 kts | 253° |
| 2026-05-01 15:05 | 40.65223 | -73.78937 | 17 ft | 15 kts | 283° |
| 2026-05-01 15:05 | 40.65254 | -73.79069 | 16 ft | 15 kts | 288° |
| 2026-05-01 15:06 | 40.65285 | -73.79204 | 16 ft | 16 kts | 282° |
| 2026-05-01 15:06 | 40.65278 | -73.79344 | 16 ft | 16 kts | 250° |
| 2026-05-01 15:06 | 40.65227 | -73.79470 | 17 ft | 16 kts | 240° |
| 2026-05-01 15:06 | 40.65174 | -73.79596 | 17 ft | 16 kts | 240° |
| 2026-05-01 15:07 | 40.65115 | -73.79719 | 17 ft | 16 kts | 230° |
| 2026-05-01 15:07 | 40.65023 | -73.79795 | 16 ft | 16 kts | 197° |
| 2026-05-01 15:07 | 40.64916 | -73.79807 | 16 ft | 15 kts | 180° |
| 2026-05-01 15:07 | 40.64813 | -73.79806 | 16 ft | 15 kts | 175° |
| 2026-05-01 15:08 | 40.64721 | -73.79762 | 16 ft | 14 kts | 147° |
| 2026-05-01 15:08 | 40.64648 | -73.79694 | 16 ft | 12 kts | 144° |
| 2026-05-01 15:08 | 40.64582 | -73.79633 | 16 ft | 13 kts | 145° |
| 2026-05-01 15:08 | 40.64497 | -73.79599 | 16 ft | 13 kts | 176° |
| 2026-05-01 15:09 | 40.64409 | -73.79592 | 16 ft | 13 kts | 178° |
| 2026-05-01 15:09 | 40.64320 | -73.79597 | 16 ft | 12 kts | 183° |
| 2026-05-01 15:09 | 40.64238 | -73.79603 | 16 ft | 11 kts | 183° |
| 2026-05-01 15:09 | 40.64175 | -73.79608 | 16 ft | 9 kts | 184° |
| 2026-05-01 15:10 | 40.64105 | -73.79606 | 16 ft | 11 kts | 171° |
| 2026-05-01 15:10 | 40.63983 | -73.79506 | 16 ft | 12 kts | 127° |
| 2026-05-01 15:10 | 40.63934 | -73.79399 | 16 ft | 13 kts | 121° |
| 2026-05-01 15:11 | 40.63891 | -73.79307 | 16 ft | 12 kts | 121° |
| 2026-05-01 15:11 | 40.63804 | -73.79113 | 16 ft | 10 kts | 121° |
| 2026-05-01 15:11 | 40.63771 | -73.79041 | 16 ft | 11 kts | 121° |
| 2026-05-01 15:12 | 40.63719 | -73.78926 | 16 ft | 16 kts | 121° |
| 2026-05-01 15:12 | 40.63625 | -73.78719 | 16 ft | 13 kts | 121° |
| 2026-05-01 15:12 | 40.63585 | -73.78630 | 16 ft | 10 kts | 121° |
| 2026-05-01 15:13 | 40.63485 | -73.78411 | 16 ft | 9 kts | 121° |
| 2026-05-01 15:14 | 40.63492 | -73.78318 | 16 ft | 7 kts | 29° |
| 2026-05-01 15:14 | 40.63550 | -73.78274 | 17 ft | 10 kts | 29° |
| 2026-05-01 15:14 | 40.63622 | -73.78199 | 16 ft | 8 kts | 82° |
| 2026-05-01 15:15 | 40.63628 | -73.78139 | 16 ft | 2 kts | 83° |
| 2026-05-01 15:15 | 40.63628 | -73.78138 | 16 ft | 0 kts | 83° |
| 2026-05-01 15:16 | 40.63628 | -73.78139 | 16 ft | 0 kts | 83° |